Terminal Aerodrome Forecast
Issued by NWS

Home | Current Version | Previous Version | Text Only | Print | Product List | Glossary On
Versions: 1 2 3 4 5 6 7 8 9 10 11 12 13 14 15 16 17
000
FTUS46 KSEW 260500
TAFHQM
TAF
KHQM 260536Z 2606/2706 26020G30KT 5SM -SHRA BR BKN030 OVC050
     FM261000 24015G25KT 5SM -SHRA BR BKN020 BKN040
     FM261600 23012KT P6SM -SHRA SCT020 BKN040=

USA.gov is the U.S. government's official web portal to all federal, state and local government web resources and services.